Saint-Sylvestre, Canada
Current Conditions -  °F | °C
As of 10:00 PM on Wednesday 26 Nov 2014 (Local Time) from CYQB Reporting Station
Broken Clouds Broken Clouds  
Wind Chill: 20°   Ceiling: 7900
Heat Index: 30°   Visibility: 15mi
Dew Point: 19°   Wind: 14mph
Humidity: 64%   Direction: 40°NE
Pressure: 30.09"   Gusts: 22mph
Location:  46.37°N, 71.23°W
Report Text: CYQB 270300Z 04012G19KT 15SM BKN079 M01/M07 A3009 RMK AC7 SLP194
Loading
Personal Weather Stations






























Interactive Weather Map New forecast layout! Learn more

10-Day Weather Forecast

Advertisements
Track Severe Weather on mobile